createdAt,value
2023-05-19T00:00:06.051Z,1221.00
2023-05-19T00:01:06.201Z,1211.00
2023-05-19T00:02:06.263Z,1256.00
2023-05-19T00:03:06.281Z,1231.00
2023-05-19T00:04:06.168Z,1242.00
2023-05-19T00:05:06.198Z,1235.00
2023-05-19T00:06:06.282Z,1220.00
2023-05-19T00:07:06.272Z,1260.00
2023-05-19T00:08:06.313Z,1235.00
2023-05-19T00:09:06.337Z,1240.00
2023-05-19T00:10:06.395Z,1209.00
2023-05-19T00:11:06.408Z,1224.00
2023-05-19T00:12:06.453Z,1259.00
2023-05-19T00:13:06.493Z,1255.00
2023-05-19T00:14:06.513Z,1260.00
2023-05-19T00:15:06.559Z,1250.00
2023-05-19T00:16:06.625Z,1234.00
2023-05-19T00:17:06.606Z,1255.00
2023-05-19T00:18:06.662Z,1248.00
2023-05-19T00:19:06.758Z,1274.00
2023-05-19T00:20:06.696Z,1242.00
2023-05-19T00:21:06.727Z,1270.00
2023-05-19T00:22:06.756Z,1253.00
2023-05-19T00:23:06.812Z,1265.00
2023-05-19T00:24:06.857Z,1267.00
2023-05-19T00:25:06.856Z,1281.00
2023-05-19T00:26:06.907Z,1272.00
2023-05-19T00:27:06.918Z,1271.00
2023-05-19T00:28:06.963Z,1300.00
2023-05-19T00:29:06.995Z,1246.00
2023-05-19T00:30:07.058Z,1305.00
2023-05-19T00:31:07.047Z,1284.00
2023-05-19T00:32:07.237Z,1284.00
2023-05-19T00:33:07.202Z,1262.00
2023-05-19T00:34:07.171Z,1262.00
2023-05-19T00:35:07.192Z,1254.00
2023-05-19T00:36:07.236Z,1270.00
2023-05-19T00:37:07.282Z,1279.00
2023-05-19T00:38:07.284Z,1298.00
2023-05-19T00:39:07.318Z,1299.00
2023-05-19T00:40:07.391Z,1315.00
2023-05-19T00:41:07.394Z,1323.00
2023-05-19T00:42:07.402Z,1308.00
2023-05-19T00:43:07.415Z,1347.00
2023-05-19T00:44:07.549Z,1343.00
2023-05-19T00:45:07.494Z,1319.00
2023-05-19T00:46:07.652Z,1354.00
2023-05-19T00:47:07.594Z,1349.00
2023-05-19T00:48:07.649Z,1346.00
2023-05-19T00:49:07.615Z,1342.00
2023-05-19T00:50:07.663Z,1305.00
2023-05-19T00:51:07.714Z,1328.00
2023-05-19T00:52:07.736Z,1371.00
2023-05-19T00:53:07.762Z,1358.00
2023-05-19T00:54:07.803Z,1349.00
2023-05-19T00:55:07.843Z,1342.00
2023-05-19T00:56:07.892Z,1386.00
2023-05-19T00:57:07.892Z,1336.00
2023-05-19T00:58:07.954Z,1394.00
2023-05-19T00:59:07.978Z,1330.00
2023-05-19T01:00:08.002Z,1395.00
2023-05-19T01:01:08.107Z,1360.00
2023-05-19T01:02:08.143Z,1414.00
2023-05-19T01:03:08.212Z,1384.00
2023-05-19T01:04:08.293Z,1361.00
2023-05-19T01:05:08.204Z,1387.00
2023-05-19T01:06:08.339Z,1374.00
2023-05-19T01:07:08.276Z,1377.00
2023-05-19T01:08:08.306Z,1341.00
2023-05-19T01:09:08.326Z,1395.00
2023-05-19T01:10:08.367Z,1374.00
2023-05-19T01:11:08.486Z,1379.00
2023-05-19T01:12:08.443Z,1336.00
2023-05-19T01:13:08.462Z,1376.00
2023-05-19T01:14:08.510Z,1349.00
2023-05-19T01:15:08.573Z,1388.00
2023-05-19T01:16:08.605Z,1391.00
2023-05-19T01:17:08.612Z,1397.00
2023-05-19T01:18:08.694Z,1420.00
2023-05-19T01:19:08.727Z,1409.00
2023-05-19T01:20:08.690Z,1374.00
2023-05-19T01:21:08.776Z,1418.00
2023-05-19T01:22:08.780Z,1392.00
2023-05-19T01:23:08.821Z,1399.00
2023-05-19T01:24:08.838Z,1419.00
2023-05-19T01:25:08.871Z,1449.00
2023-05-19T01:26:08.926Z,1421.00
2023-05-19T01:27:08.964Z,1426.00
2023-05-19T01:28:08.989Z,1396.00
2023-05-19T01:29:09.028Z,1471.00
2023-05-19T01:30:09.051Z,1444.00
2023-05-19T01:31:09.082Z,1451.00
2023-05-19T01:32:09.233Z,1438.00
2023-05-19T01:33:09.345Z,1484.00
2023-05-19T01:34:09.195Z,1472.00
2023-05-19T01:35:09.248Z,1475.00
2023-05-19T01:36:09.282Z,1459.00
2023-05-19T01:37:09.295Z,1493.00
2023-05-19T01:38:09.339Z,1511.00
2023-05-19T01:39:09.339Z,1512.00
2023-05-19T01:40:09.392Z,1550.00
2023-05-19T01:41:09.397Z,1505.00
2023-05-19T01:42:09.439Z,1518.00
2023-05-19T01:43:09.473Z,1542.00
2023-05-19T01:44:09.494Z,1525.00
2023-05-19T01:45:09.516Z,1501.00
2023-05-19T01:46:09.607Z,1530.00
2023-05-19T01:47:09.562Z,1547.00
2023-05-19T01:48:11.298Z,1532.00
2023-05-19T01:49:09.624Z,1536.00
2023-05-19T01:50:09.650Z,1540.00
2023-05-19T01:51:09.683Z,1518.00
2023-05-19T01:52:09.694Z,1502.00
2023-05-19T01:53:09.739Z,1514.00
2023-05-19T01:54:09.771Z,1522.00
2023-05-19T01:55:09.792Z,1544.00
2023-05-19T01:56:09.861Z,1526.00
2023-05-19T01:57:09.948Z,1530.00
2023-05-19T01:58:09.890Z,1494.00
2023-05-19T01:59:09.907Z,1516.00
2023-05-19T02:00:09.992Z,1525.00
2023-05-19T02:01:10.024Z,1455.00
2023-05-19T02:02:10.000Z,1499.00
2023-05-19T02:03:10.025Z,1480.00
2023-05-19T02:04:10.100Z,1511.00
2023-05-19T02:05:10.133Z,1487.00
2023-05-19T02:06:10.147Z,1532.00
2023-05-19T02:07:10.156Z,1502.00
2023-05-19T02:08:10.220Z,1487.00
2023-05-19T02:09:10.224Z,1510.00
2023-05-19T02:10:10.273Z,1471.00
2023-05-19T02:11:10.299Z,1484.00
2023-05-19T02:12:10.328Z,1493.00
2023-05-19T02:13:10.374Z,1483.00
2023-05-19T02:14:10.402Z,1489.00
2023-05-19T02:15:10.419Z,1522.00
2023-05-19T02:16:10.486Z,1529.00
2023-05-19T02:17:10.482Z,1527.00
2023-05-19T02:18:10.545Z,1546.00
2023-05-19T02:19:10.598Z,1509.00
2023-05-19T02:20:10.619Z,1511.00
2023-05-19T02:21:10.631Z,1526.00
2023-05-19T02:22:10.629Z,1539.00
2023-05-19T02:23:10.721Z,1518.00
2023-05-19T02:24:10.694Z,1549.00
2023-05-19T02:25:10.776Z,1546.00
2023-05-19T02:26:10.820Z,1549.00
2023-05-19T02:27:10.815Z,1546.00
2023-05-19T02:28:10.945Z,1564.00
2023-05-19T02:29:10.880Z,1560.00
2023-05-19T02:30:10.906Z,1565.00
2023-05-19T02:31:10.959Z,1604.00
2023-05-19T02:32:11.125Z,1570.00
2023-05-19T02:33:11.053Z,1555.00
2023-05-19T02:34:11.042Z,1571.00
2023-05-19T02:35:11.085Z,1599.00
2023-05-19T02:36:11.111Z,1643.00
2023-05-19T02:37:11.147Z,1572.00
2023-05-19T02:38:11.190Z,1606.00
2023-05-19T02:39:11.246Z,1616.00
2023-05-19T02:40:11.246Z,1615.00
2023-05-19T02:41:11.283Z,1567.00
2023-05-19T02:42:11.330Z,1602.00
2023-05-19T02:43:11.368Z,1566.00
2023-05-19T02:44:11.382Z,1626.00
2023-05-19T02:45:11.437Z,1614.00
2023-05-19T02:46:11.481Z,1606.00
2023-05-19T02:47:11.501Z,1584.00
2023-05-19T02:48:11.537Z,1598.00
2023-05-19T02:49:11.568Z,1563.00
2023-05-19T02:50:11.628Z,1610.00
2023-05-19T02:51:11.622Z,1583.00
2023-05-19T02:52:11.657Z,1639.00
2023-05-19T02:53:11.712Z,1613.00
2023-05-19T02:54:11.731Z,1620.00
2023-05-19T02:55:11.808Z,1649.00
2023-05-19T02:56:11.872Z,1677.00
2023-05-19T02:57:11.839Z,1664.00
2023-05-19T02:58:11.862Z,1656.00
2023-05-19T02:59:11.911Z,1635.00
2023-05-19T03:00:11.951Z,1688.00
2023-05-19T03:01:11.972Z,1627.00
2023-05-19T03:02:12.077Z,1664.00
2023-05-19T03:03:12.148Z,1639.00
2023-05-19T03:04:12.074Z,1661.00
2023-05-19T03:05:12.126Z,1656.00
2023-05-19T03:06:12.145Z,1669.00
2023-05-19T03:07:12.190Z,1685.00
2023-05-19T03:08:12.229Z,1637.00
2023-05-19T03:09:12.252Z,1690.00
2023-05-19T03:10:12.286Z,1683.00
2023-05-19T03:11:12.311Z,1681.00
2023-05-19T03:12:12.355Z,1685.00
2023-05-19T03:13:12.407Z,1692.00
2023-05-19T03:14:12.464Z,1671.00
2023-05-19T03:15:12.438Z,1649.00
2023-05-19T03:16:12.539Z,1661.00
2023-05-19T03:17:12.565Z,1688.00
2023-05-19T03:18:12.675Z,1613.00
2023-05-19T03:19:12.678Z,1639.00
2023-05-19T03:20:12.643Z,1674.00
2023-05-19T03:21:12.684Z,1642.00
2023-05-19T03:22:12.741Z,1666.00
2023-05-19T03:23:12.768Z,1666.00
2023-05-19T03:24:12.810Z,1656.00
2023-05-19T03:25:12.827Z,1699.00
2023-05-19T03:26:12.877Z,1693.00
2023-05-19T03:27:12.910Z,1670.00
2023-05-19T03:28:12.954Z,1680.00
2023-05-19T03:29:12.969Z,1715.00
2023-05-19T03:30:13.014Z,1724.00
2023-05-19T03:31:13.075Z,1705.00
2023-05-19T03:32:13.309Z,1721.00
2023-05-19T03:33:13.248Z,1689.00
2023-05-19T03:34:13.165Z,1725.00
2023-05-19T03:35:13.202Z,1703.00
2023-05-19T03:36:13.236Z,1707.00
2023-05-19T03:37:13.289Z,1699.00
2023-05-19T03:38:13.340Z,1713.00
2023-05-19T03:39:13.392Z,1704.00
2023-05-19T03:40:13.407Z,1705.00
2023-05-19T03:41:13.452Z,1711.00
2023-05-19T03:42:13.476Z,1726.00
2023-05-19T03:43:13.518Z,1698.00
2023-05-19T03:44:13.559Z,1676.00
2023-05-19T03:45:13.584Z,1681.00
2023-05-19T03:46:13.671Z,1695.00
2023-05-19T03:47:13.659Z,1684.00
2023-05-19T03:48:13.810Z,1719.00
2023-05-19T03:49:13.740Z,1709.00
2023-05-19T03:50:13.784Z,1732.00
2023-05-19T03:51:13.808Z,1730.00
2023-05-19T03:52:13.838Z,1725.00
2023-05-19T03:53:13.866Z,1765.00
2023-05-19T03:54:13.915Z,1777.00
2023-05-19T03:55:13.937Z,1761.00
2023-05-19T03:56:14.095Z,1737.00
2023-05-19T03:57:14.026Z,1744.00
2023-05-19T03:58:14.052Z,1732.00
2023-05-19T03:59:14.090Z,1761.00
2023-05-19T04:00:14.103Z,1733.00
2023-05-19T04:01:14.171Z,1736.00
2023-05-19T04:02:14.206Z,1799.00
2023-05-19T04:03:14.342Z,1748.00
2023-05-19T04:04:14.291Z,1763.00
2023-05-19T04:05:14.291Z,1768.00
2023-05-19T04:06:14.321Z,1741.00
2023-05-19T04:07:14.365Z,1705.00
2023-05-19T04:08:14.405Z,1730.00
2023-05-19T04:09:14.451Z,1732.00
2023-05-19T04:10:14.481Z,1761.00
2023-05-19T04:11:14.512Z,1756.00
2023-05-19T04:12:14.525Z,1769.00
2023-05-19T04:13:14.585Z,1715.00
2023-05-19T04:14:14.614Z,1717.00
2023-05-19T04:15:14.623Z,1717.00
2023-05-19T04:16:14.724Z,1736.00
2023-05-19T04:17:14.725Z,1746.00
2023-05-19T04:18:14.771Z,1748.00
2023-05-19T04:19:14.805Z,1750.00
2023-05-19T04:20:14.776Z,1739.00
2023-05-19T04:21:14.832Z,1721.00
2023-05-19T04:22:14.854Z,1709.00
2023-05-19T04:23:14.896Z,1703.00
2023-05-19T04:24:14.910Z,1720.00
2023-05-19T04:25:14.933Z,1716.00
2023-05-19T04:26:15.003Z,1705.00
2023-05-19T04:27:15.011Z,1741.00
2023-05-19T04:28:15.030Z,1733.00
2023-05-19T04:29:15.092Z,1700.00
2023-05-19T04:30:16.697Z,1725.00
2023-05-19T04:31:15.191Z,1718.00
2023-05-19T04:32:15.103Z,1718.00
2023-05-19T04:33:15.087Z,1693.00
2023-05-19T04:34:15.104Z,1667.00
2023-05-19T04:35:15.067Z,1659.00
2023-05-19T04:36:15.064Z,1639.00
2023-05-19T04:37:15.050Z,1643.00
2023-05-19T04:38:15.042Z,1689.00
2023-05-19T04:39:15.051Z,1685.00
2023-05-19T04:40:15.033Z,1651.00
2023-05-19T04:41:15.050Z,1667.00
2023-05-19T04:42:15.009Z,1645.00
2023-05-19T04:43:15.018Z,1677.00
2023-05-19T04:44:14.996Z,1678.00
2023-05-19T04:45:15.011Z,1706.00
2023-05-19T04:46:15.035Z,1657.00
2023-05-19T04:47:14.991Z,1658.00
2023-05-19T04:48:14.995Z,1609.00
2023-05-19T04:49:14.970Z,1644.00
2023-05-19T04:50:14.964Z,1622.00
2023-05-19T04:51:14.983Z,1661.00
2023-05-19T04:52:14.946Z,1624.00
2023-05-19T04:53:14.947Z,1609.00
2023-05-19T04:54:14.945Z,1590.00
2023-05-19T04:55:14.933Z,1608.00
2023-05-19T04:56:14.956Z,1616.00
2023-05-19T04:57:14.926Z,1617.00
2023-05-19T04:58:14.909Z,1624.00
2023-05-19T04:59:14.902Z,1613.00
2023-05-19T05:00:14.961Z,1629.00
2023-05-19T05:01:14.915Z,1614.00
2023-05-19T05:02:15.005Z,1572.00
2023-05-19T05:03:15.099Z,1565.00
2023-05-19T05:04:14.956Z,1560.00
2023-05-19T05:05:14.875Z,1552.00
2023-05-19T05:06:14.865Z,1508.00
2023-05-19T05:07:14.865Z,1515.00
2023-05-19T05:08:14.881Z,1540.00
2023-05-19T05:09:14.833Z,1516.00
2023-05-19T05:10:14.850Z,1501.00
2023-05-19T05:11:14.841Z,1492.00
2023-05-19T05:12:14.832Z,1479.00
2023-05-19T05:13:14.910Z,1480.00
2023-05-19T05:14:14.828Z,1506.00
2023-05-19T05:15:14.813Z,1479.00
2023-05-19T05:16:14.853Z,1433.00
2023-05-19T05:17:14.804Z,1465.00
2023-05-19T05:18:14.785Z,1444.00
2023-05-19T05:19:14.836Z,1421.00
2023-05-19T05:20:14.782Z,1436.00
2023-05-19T05:21:14.793Z,1408.00
2023-05-19T05:22:14.781Z,1410.00
2023-05-19T05:23:14.807Z,1411.00
2023-05-19T05:24:14.759Z,1383.00
2023-05-19T05:25:14.743Z,1347.00
2023-05-19T05:26:14.736Z,1366.00
2023-05-19T05:27:14.744Z,1372.00
2023-05-19T05:28:14.712Z,1351.00
2023-05-19T05:29:14.710Z,1345.00
2023-05-19T05:30:14.712Z,1362.00
2023-05-19T05:31:14.775Z,1332.00
2023-05-19T05:32:14.709Z,1307.00
2023-05-19T05:33:14.863Z,1316.00
2023-05-19T05:34:14.684Z,1294.00
2023-05-19T05:35:14.693Z,1311.00
2023-05-19T05:36:14.732Z,1308.00
2023-05-19T05:37:15.382Z,1303.00
2023-05-19T05:38:14.660Z,1345.00
2023-05-19T05:39:14.660Z,1327.00
2023-05-19T05:40:14.644Z,1345.00
2023-05-19T05:41:14.650Z,1330.00
2023-05-19T05:42:14.630Z,1347.00
2023-05-19T05:43:14.635Z,1368.00
2023-05-19T05:44:14.606Z,1356.00
2023-05-19T05:45:14.615Z,1344.00
2023-05-19T05:46:14.625Z,1312.00
2023-05-19T05:47:14.597Z,1326.00
2023-05-19T05:48:14.631Z,1343.00
2023-05-19T05:49:14.595Z,1344.00
2023-05-19T05:50:14.573Z,1353.00
2023-05-19T05:51:14.556Z,1343.00
2023-05-19T05:52:14.560Z,1365.00
2023-05-19T05:53:14.570Z,1378.00
2023-05-19T05:54:14.571Z,1391.00
2023-05-19T05:55:14.588Z,1387.00
2023-05-19T05:56:14.621Z,1375.00
2023-05-19T05:57:14.585Z,1384.00
2023-05-19T05:58:14.567Z,1393.00
2023-05-19T05:59:14.600Z,1408.00
2023-05-19T06:00:14.610Z,1407.00
2023-05-19T06:01:14.590Z,1379.00
2023-05-19T06:02:14.646Z,1425.00
2023-05-19T06:03:14.701Z,1402.00
2023-05-19T06:04:14.617Z,1394.00
2023-05-19T06:05:14.661Z,1375.00
2023-05-19T06:06:14.636Z,1398.00
2023-05-19T06:07:14.626Z,1419.00
2023-05-19T06:08:14.639Z,1400.00
2023-05-19T06:09:14.615Z,1395.00
2023-05-19T06:10:14.636Z,1422.00
2023-05-19T06:11:14.638Z,1420.00
2023-05-19T06:12:14.648Z,1413.00
2023-05-19T06:13:14.646Z,1412.00
2023-05-19T06:14:14.660Z,1413.00
2023-05-19T06:15:14.668Z,1431.00
2023-05-19T06:16:14.681Z,1411.00
2023-05-19T06:17:14.648Z,1432.00
2023-05-19T06:18:14.809Z,1445.00
2023-05-19T06:19:14.670Z,1456.00
2023-05-19T06:20:14.635Z,1423.00
2023-05-19T06:21:14.627Z,1450.00
2023-05-19T06:22:14.623Z,1434.00
2023-05-19T06:23:14.662Z,1423.00
2023-05-19T06:24:14.628Z,1433.00
2023-05-19T06:25:14.624Z,1404.00
2023-05-19T06:26:14.625Z,1411.00
2023-05-19T06:27:14.618Z,1423.00
2023-05-19T06:28:14.631Z,1440.00
2023-05-19T06:29:14.622Z,1428.00
2023-05-19T06:30:14.654Z,1445.00
2023-05-19T06:31:14.633Z,1469.00
2023-05-19T06:32:14.638Z,1456.00
2023-05-19T06:33:14.623Z,1455.00
2023-05-19T06:34:14.617Z,1448.00
2023-05-19T06:35:14.598Z,1445.00
2023-05-19T06:36:14.651Z,1410.00
2023-05-19T06:37:14.636Z,1397.00
2023-05-19T06:38:14.641Z,1383.00
2023-05-19T06:39:14.633Z,1422.00
2023-05-19T06:40:14.654Z,1406.00
2023-05-19T06:41:14.640Z,1404.00
2023-05-19T06:42:14.638Z,1388.00
2023-05-19T06:43:14.645Z,1396.00
2023-05-19T06:44:14.617Z,1357.00
2023-05-19T06:45:14.616Z,1337.00
2023-05-19T06:46:14.657Z,1388.00
2023-05-19T06:47:14.679Z,1372.00
2023-05-19T06:48:14.697Z,1353.00
2023-05-19T06:49:14.618Z,1347.00
2023-05-19T06:50:14.621Z,1382.00
2023-05-19T06:51:14.642Z,1373.00
2023-05-19T06:52:14.634Z,1422.00
2023-05-19T06:53:14.628Z,1409.00
2023-05-19T06:54:14.661Z,1411.00
2023-05-19T06:55:14.664Z,1405.00
2023-05-19T06:56:14.675Z,1412.00
2023-05-19T06:57:14.710Z,1480.00
2023-05-19T06:58:14.735Z,1460.00
2023-05-19T06:59:14.767Z,1455.00
2023-05-19T07:00:17.821Z,1462.00
2023-05-19T07:01:14.840Z,1544.00
2023-05-19T07:02:14.953Z,1509.00
2023-05-19T07:03:14.872Z,1512.00
2023-05-19T07:04:14.813Z,1544.00
2023-05-19T07:05:14.776Z,1534.00
2023-05-19T07:06:14.748Z,1493.00
2023-05-19T07:07:14.742Z,1480.00
2023-05-19T07:08:14.726Z,1448.00
2023-05-19T07:09:14.777Z,1449.00
2023-05-19T07:10:14.756Z,1473.00
2023-05-19T07:11:14.725Z,1447.00
2023-05-19T07:12:14.718Z,1406.00
2023-05-19T07:13:14.716Z,1431.00
2023-05-19T07:14:14.704Z,1449.00
2023-05-19T07:15:14.689Z,1462.00
2023-05-19T07:16:14.818Z,1434.00
2023-05-19T07:17:14.670Z,1412.00
2023-05-19T07:18:14.675Z,1369.00
2023-05-19T07:19:14.706Z,1371.00
2023-05-19T07:20:14.658Z,1357.00
2023-05-19T07:21:14.664Z,1307.00
2023-05-19T07:22:14.642Z,1317.00
2023-05-19T07:23:16.710Z,1364.00
2023-05-19T07:24:14.627Z,1268.00
2023-05-19T07:25:14.614Z,1298.00
2023-05-19T07:26:14.621Z,1327.00
2023-05-19T07:27:14.624Z,1437.00
2023-05-19T07:28:14.613Z,1425.00
2023-05-19T07:29:14.606Z,1462.00
2023-05-19T07:30:14.582Z,1401.00
2023-05-19T07:31:14.595Z,1304.00
2023-05-19T07:32:14.662Z,1354.00
2023-05-19T07:33:14.605Z,1406.00
2023-05-19T07:34:14.578Z,1458.00
2023-05-19T07:35:14.571Z,1428.00
2023-05-19T07:36:14.541Z,1409.00
2023-05-19T07:37:14.543Z,1337.00
2023-05-19T07:38:14.610Z,1276.00
2023-05-19T07:39:14.559Z,1238.00
2023-05-19T07:40:14.560Z,1301.00
2023-05-19T07:41:14.548Z,1363.00
2023-05-19T07:42:14.515Z,1408.00
2023-05-19T07:43:14.525Z,1436.00
2023-05-19T07:44:14.523Z,1495.00
2023-05-19T07:45:14.498Z,1478.00
2023-05-19T07:46:14.624Z,1458.00
2023-05-19T07:47:14.481Z,1406.00
2023-05-19T07:48:14.545Z,1422.00
2023-05-19T07:49:14.457Z,1446.00
2023-05-19T07:50:14.456Z,1441.00
2023-05-19T07:51:14.470Z,1397.00
2023-05-19T07:52:14.457Z,1430.00
2023-05-19T07:53:14.578Z,1450.00
2023-05-19T07:54:14.425Z,1490.00
2023-05-19T07:55:14.411Z,1492.00
2023-05-19T07:56:14.443Z,1491.00
2023-05-19T07:57:14.399Z,1467.00
2023-05-19T07:58:14.391Z,1518.00
2023-05-19T07:59:14.400Z,1498.00
2023-05-19T08:00:14.387Z,1520.00
2023-05-19T08:01:14.394Z,1567.00
2023-05-19T08:02:14.488Z,1563.00
2023-05-19T08:03:14.478Z,1560.00
2023-05-19T08:04:14.648Z,1589.00
2023-05-19T08:05:14.492Z,1626.00
2023-05-19T08:06:14.511Z,1593.00
2023-05-19T08:07:14.547Z,1627.00
2023-05-19T08:08:14.610Z,1617.00
2023-05-19T08:09:14.626Z,1648.00
2023-05-19T08:10:14.652Z,1660.00
2023-05-19T08:11:14.706Z,1672.00
2023-05-19T08:12:14.736Z,1679.00
2023-05-19T08:13:14.771Z,1685.00
2023-05-19T08:14:14.811Z,1677.00
2023-05-19T08:15:14.830Z,1684.00
2023-05-19T08:16:14.882Z,1709.00
2023-05-19T08:17:14.906Z,1744.00
2023-05-19T08:18:14.938Z,1740.00
2023-05-19T08:19:14.993Z,1725.00
2023-05-19T08:20:14.990Z,1723.00
2023-05-19T08:21:15.020Z,1736.00
2023-05-19T08:22:15.031Z,1714.00
2023-05-19T08:23:15.097Z,1712.00
2023-05-19T08:24:15.118Z,1714.00
2023-05-19T08:25:15.117Z,1747.00
2023-05-19T08:26:15.133Z,1770.00
2023-05-19T08:27:15.177Z,1810.00
2023-05-19T08:28:15.216Z,1873.00
2023-05-19T08:29:15.262Z,1904.00
2023-05-19T08:30:15.292Z,1862.00
2023-05-19T08:31:15.368Z,1920.00
2023-05-19T08:32:15.374Z,1928.00
2023-05-19T08:33:15.396Z,1899.00
2023-05-19T08:34:15.458Z,1927.00
2023-05-19T08:35:15.508Z,1884.00
2023-05-19T08:36:15.618Z,1803.00
2023-05-19T08:37:15.598Z,1772.00
2023-05-19T08:38:15.662Z,1700.00
2023-05-19T08:39:15.670Z,1681.00
2023-05-19T08:40:15.713Z,1683.00
2023-05-19T08:41:15.807Z,1637.00
2023-05-19T08:42:15.817Z,1610.00
2023-05-19T08:43:15.853Z,1561.00
2023-05-19T08:44:18.834Z,1598.00
2023-05-19T08:45:15.897Z,1571.00
2023-05-19T08:46:15.902Z,1557.00
2023-05-19T08:47:15.890Z,1531.00
2023-05-19T08:48:15.952Z,1537.00
2023-05-19T08:49:15.869Z,1535.00
2023-05-19T08:50:15.856Z,1510.00
2023-05-19T08:51:15.883Z,1522.00
2023-05-19T08:52:15.864Z,1507.00
2023-05-19T08:53:31.782Z,1502.00
2023-05-19T08:54:16.865Z,1503.00
2023-05-19T08:55:15.825Z,1505.00
2023-05-19T08:56:15.829Z,1503.00
2023-05-19T08:57:15.818Z,1494.00
2023-05-19T08:58:15.803Z,1510.00
2023-05-19T08:59:15.816Z,1493.00
2023-05-19T09:00:15.813Z,1488.00
2023-05-19T09:01:15.847Z,1455.00
2023-05-19T09:02:15.809Z,1482.00
2023-05-19T09:04:15.981Z,1464.00
2023-05-19T09:05:15.920Z,1423.00
2023-05-19T09:06:15.937Z,1442.00
2023-05-19T09:07:15.984Z,1397.00
2023-05-19T09:08:16.024Z,1388.00
2023-05-19T09:09:16.052Z,1373.00
2023-05-19T09:10:16.086Z,1424.00
2023-05-19T09:11:16.123Z,1412.00
2023-05-19T09:12:16.222Z,1400.00
2023-05-19T09:13:16.200Z,1383.00
2023-05-19T09:14:16.223Z,1429.00
2023-05-19T09:15:16.249Z,1442.00
2023-05-19T09:16:16.314Z,1460.00
2023-05-19T09:17:16.341Z,1438.00
2023-05-19T09:18:16.375Z,1470.00
2023-05-19T09:19:16.448Z,1485.00
2023-05-19T09:20:16.444Z,1473.00
2023-05-19T09:21:16.467Z,1496.00
2023-05-19T09:22:16.499Z,1501.00
2023-05-19T09:23:16.814Z,1500.00
2023-05-19T09:24:16.540Z,1512.00
2023-05-19T09:25:16.552Z,1524.00
2023-05-19T09:26:16.591Z,1550.00
2023-05-19T09:27:16.606Z,1559.00
2023-05-19T09:28:16.632Z,1552.00
2023-05-19T09:29:16.668Z,1560.00
2023-05-19T09:30:16.683Z,1551.00
2023-05-19T09:31:16.694Z,1551.00
2023-05-19T09:32:16.785Z,1532.00
2023-05-19T09:33:16.780Z,1534.00
2023-05-19T09:34:16.747Z,1537.00
2023-05-19T09:35:16.803Z,1516.00
2023-05-19T09:36:16.806Z,1547.00
2023-05-19T09:37:16.831Z,1547.00
2023-05-19T09:38:16.865Z,1559.00
2023-05-19T09:39:16.882Z,1553.00
2023-05-19T09:40:16.974Z,1519.00
2023-05-19T09:41:16.942Z,1539.00
2023-05-19T09:42:16.953Z,1522.00
2023-05-19T09:43:16.971Z,1518.00
2023-05-19T09:44:16.982Z,1527.00
2023-05-19T09:45:17.005Z,1495.00
2023-05-19T09:46:17.045Z,1531.00
2023-05-19T09:47:17.054Z,1536.00
2023-05-19T09:48:17.078Z,1548.00
2023-05-19T09:49:17.108Z,1512.00
2023-05-19T09:50:17.164Z,1530.00
2023-05-19T09:51:17.165Z,1564.00
2023-05-19T09:52:17.205Z,1593.00
2023-05-19T09:53:17.212Z,1642.00
2023-05-19T09:54:17.268Z,1726.00
2023-05-19T09:55:17.254Z,1777.00
2023-05-19T09:56:17.276Z,1785.00
2023-05-19T09:57:17.310Z,1755.00
2023-05-19T09:58:17.334Z,1783.00
2023-05-19T09:59:17.357Z,1819.00
2023-05-19T10:00:17.425Z,1832.00
2023-05-19T10:01:17.474Z,1832.00
2023-05-19T10:02:17.463Z,1823.00
2023-05-19T10:03:17.464Z,1792.00
2023-05-19T10:04:17.516Z,1764.00
2023-05-19T10:05:17.965Z,1756.00
2023-05-19T10:06:17.576Z,1700.00
2023-05-19T10:07:17.611Z,1644.00
2023-05-19T10:08:17.639Z,1628.00
2023-05-19T10:09:17.655Z,1542.00
2023-05-19T10:10:17.721Z,1511.00
2023-05-19T10:11:17.729Z,1474.00
2023-05-19T10:12:17.766Z,1457.00
2023-05-19T10:13:17.811Z,1424.00
2023-05-19T10:14:17.833Z,1434.00
2023-05-19T10:15:17.864Z,1392.00
2023-05-19T10:16:17.976Z,1402.00
2023-05-19T10:17:17.932Z,1375.00
2023-05-19T10:18:17.936Z,1365.00
2023-05-19T10:19:18.006Z,1371.00
2023-05-19T10:20:18.023Z,1343.00
2023-05-19T10:21:18.046Z,1335.00
2023-05-19T10:22:18.058Z,1298.00
2023-05-19T10:23:18.105Z,1298.00
2023-05-19T10:24:18.118Z,1310.00
2023-05-19T10:25:18.158Z,1291.00
2023-05-19T10:26:18.210Z,1295.00
2023-05-19T10:27:18.235Z,1265.00
2023-05-19T10:28:18.265Z,1264.00
2023-05-19T10:29:18.317Z,1235.00
2023-05-19T10:30:18.387Z,1246.00
2023-05-19T10:31:18.379Z,1249.00
2023-05-19T10:32:18.491Z,1223.00
2023-05-19T10:33:18.536Z,1217.00
2023-05-19T10:34:18.499Z,1200.00
2023-05-19T10:35:18.533Z,1199.00
2023-05-19T10:36:18.576Z,1204.00
2023-05-19T10:37:18.616Z,1188.00
2023-05-19T10:38:18.622Z,1187.00
2023-05-19T10:39:18.662Z,1181.00
2023-05-19T10:40:18.692Z,1146.00
2023-05-19T10:41:18.734Z,1143.00
2023-05-19T10:42:18.767Z,1136.00
2023-05-19T10:43:18.804Z,1117.00
2023-05-19T10:44:18.859Z,1121.00
2023-05-19T10:45:18.859Z,1116.00
2023-05-19T10:46:18.930Z,1127.00
2023-05-19T10:47:18.944Z,1113.00
2023-05-19T10:48:18.919Z,1120.00
2023-05-19T10:49:18.951Z,1135.00
2023-05-19T10:50:19.010Z,1123.00
2023-05-19T10:51:19.042Z,1137.00
2023-05-19T10:52:19.047Z,1152.00
2023-05-19T10:53:19.071Z,1164.00
2023-05-19T10:54:19.064Z,1171.00
2023-05-19T10:55:19.096Z,1138.00
2023-05-19T10:56:19.120Z,1149.00
2023-05-19T10:57:19.142Z,1136.00
2023-05-19T10:58:19.194Z,1135.00
2023-05-19T10:59:19.184Z,1149.00
2023-05-19T11:00:19.208Z,1156.00
2023-05-19T11:01:19.390Z,1176.00
2023-05-19T11:02:19.357Z,1168.00
2023-05-19T11:03:19.266Z,1142.00
2023-05-19T11:04:19.359Z,1136.00
2023-05-19T11:05:19.331Z,1136.00
2023-05-19T11:06:19.371Z,1126.00
2023-05-19T11:07:19.373Z,1110.00
2023-05-19T11:08:19.398Z,1136.00
2023-05-19T11:09:22.477Z,1126.00
2023-05-19T11:10:21.584Z,1126.00
2023-05-19T11:11:19.406Z,1104.00
2023-05-19T11:12:19.407Z,1129.00
2023-05-19T11:13:19.397Z,1113.00
2023-05-19T11:14:19.393Z,1114.00
2023-05-19T11:15:19.373Z,1120.00
2023-05-19T11:16:19.499Z,1113.00
2023-05-19T11:17:19.370Z,1151.00
2023-05-19T11:18:19.367Z,1181.00
2023-05-19T11:19:19.381Z,1189.00
2023-05-19T11:20:19.372Z,1271.00
2023-05-19T11:21:19.424Z,1304.00
2023-05-19T11:22:19.423Z,1380.00
2023-05-19T11:23:19.490Z,1428.00
2023-05-19T11:24:19.488Z,1356.00
2023-05-19T11:25:19.492Z,1453.00
2023-05-19T11:26:19.526Z,1444.00
2023-05-19T11:27:19.563Z,1435.00
2023-05-19T11:28:20.045Z,1448.00
2023-05-19T11:29:19.597Z,1451.00
2023-05-19T11:30:19.649Z,1380.00
2023-05-19T11:31:19.658Z,1423.00
2023-05-19T11:32:19.818Z,1417.00
2023-05-19T11:33:19.965Z,1340.00
2023-05-19T11:34:19.753Z,1279.00
2023-05-19T11:35:19.760Z,1225.00
2023-05-19T11:36:19.819Z,1219.00
2023-05-19T11:37:19.840Z,1188.00
2023-05-19T11:38:19.878Z,1187.00
2023-05-19T11:39:19.908Z,1123.00
2023-05-19T11:40:19.958Z,1132.00
2023-05-19T11:41:20.873Z,1123.00
2023-05-19T11:42:20.012Z,1084.00
2023-05-19T11:43:20.010Z,1074.00
2023-05-19T11:44:20.046Z,1038.00
2023-05-19T11:45:20.077Z,1043.00
2023-05-19T11:46:20.180Z,1062.00
2023-05-19T11:47:20.197Z,1020.00
2023-05-19T11:48:20.284Z,1029.00
2023-05-19T11:49:20.220Z,995.00
2023-05-19T11:50:20.324Z,1048.00
2023-05-19T11:51:20.279Z,1031.00
2023-05-19T11:52:20.304Z,1027.00
2023-05-19T11:53:20.356Z,1029.00
2023-05-19T11:54:20.392Z,1001.00
2023-05-19T11:55:20.435Z,1012.00
2023-05-19T11:56:20.483Z,1007.00
2023-05-19T11:57:20.523Z,1013.00
2023-05-19T11:58:20.555Z,955.00
2023-05-19T11:59:20.610Z,955.00
2023-05-19T12:00:20.652Z,935.00
2023-05-19T12:01:20.679Z,936.00
2023-05-19T12:02:20.787Z,926.00
2023-05-19T12:03:20.885Z,901.00
2023-05-19T12:04:20.750Z,894.00
2023-05-19T12:05:20.885Z,877.00
2023-05-19T12:06:20.840Z,836.00
2023-05-19T12:07:20.840Z,873.00